Time;durP1;ratioP1;P1;durP2;ratioP2;P2;SDS_P1;SDS_P2;PMS_P1;PMS_P2;Temp;Humidity;BMP_temperature;BMP_pressure;BME280_temperature;BME280_humidity;BME280_pressure;Samples;Min_cycle;Max_cycle;Signal;HPM_P1;HPM_P2
2022/04/28 00:02:09;;;;;;;3.78;2.15;;;;;;;13.26;65.27;100088.31;5028467;28;20099;-29
2022/04/28 00:04:35;;;;;;;4.10;2.38;;;;;;;13.05;65.45;100081.69;5028592;28;20627;-28
2022/04/28 00:07:01;;;;;;;8.02;3.03;;;;;;;13.09;65.46;100098.09;5028119;28;20037;-28
2022/04/28 00:09:26;;;;;;;4.80;2.42;;;;;;;13.03;66.34;100097.16;5028336;28;20090;-29
2022/04/28 00:11:52;;;;;;;4.60;2.50;;;;;;;13.12;66.14;100108.38;5028789;28;20038;-29
2022/04/28 00:14:18;;;;;;;5.78;2.15;;;;;;;13.13;65.67;100090.44;5028583;28;20029;-28
2022/04/28 00:16:43;;;;;;;6.43;2.88;;;;;;;13.13;66.19;100099.25;5028093;28;20029;-29
2022/04/28 00:19:09;;;;;;;5.82;2.67;;;;;;;13.07;66.76;100106.38;5026931;28;20592;-31
2022/04/28 00:21:35;;;;;;;5.78;2.67;;;;;;;12.99;66.63;100095.19;5028128;28;20490;-30
2022/04/28 00:24:00;;;;;;;5.82;2.72;;;;;;;12.91;66.91;100095.56;5027805;28;20422;-30
2022/04/28 00:26:25;;;;;;;5.40;3.15;;;;;;;12.82;67.50;100098.59;5028292;28;20022;-29
2022/04/28 00:28:51;;;;;;;4.95;3.00;;;;;;;12.72;67.55;100095.69;5027677;28;20060;-29
2022/04/28 00:31:16;;;;;;;6.00;2.88;;;;;;;12.72;67.60;100098.34;5027686;28;20026;-30
2022/04/28 00:33:41;;;;;;;5.78;2.85;;;;;;;12.90;67.59;100096.63;5028044;28;20032;-31
2022/04/28 00:36:09;;;;;;;6.50;2.63;;;;;;;13.03;66.86;100088.34;5026279;28;20060;-30
2022/04/28 00:38:35;;;;;;;6.23;2.93;;;;;;;12.83;67.76;100094.88;5026639;28;20045;-28
2022/04/28 00:41:00;;;;;;;7.05;3.63;;;;;;;13.19;66.72;100113.59;5027890;28;20326;-28
2022/04/28 00:43:29;;;;;;;6.47;3.55;;;;;;;12.84;67.76;100096.50;5028166;28;20033;-29
2022/04/28 00:45:55;;;;;;;6.85;3.50;;;;;;;12.86;68.46;100110.47;5026536;28;20108;-28
2022/04/28 00:51:07;;;;;;;7.18;3.97;;;;;;;12.73;69.03;100109.84;5027806;28;20095;-29
2022/04/28 00:53:46;;;;;;;6.85;3.85;;;;;;;12.39;70.67;100089.00;5027882;28;20026;-28
2022/04/28 00:56:12;;;;;;;6.65;4.07;;;;;;;12.39;70.99;100099.72;5027788;28;20025;-28
2022/04/28 00:58:41;;;;;;;8.13;3.78;;;;;;;12.48;70.51;100108.22;5027405;28;20084;-31
2022/04/28 01:01:06;;;;;;;6.43;3.85;;;;;;;12.32;71.05;100088.31;5027478;28;20032;-32
2022/04/28 01:03:32;;;;;;;8.57;4.10;;;;;;;12.42;71.41;100103.78;5027360;28;20033;-29
2022/04/28 01:05:58;;;;;;;9.07;4.03;;;;;;;12.32;71.08;100090.16;5027797;28;20538;-29
2022/04/28 01:08:24;;;;;;;7.70;4.20;;;;;;;12.34;70.82;100086.22;5026291;28;20057;-28
2022/04/28 01:10:52;;;;;;;6.63;3.95;;;;;;;12.62;69.79;100103.47;5027252;28;20493;-32
2022/04/28 01:13:17;;;;;;;5.63;3.92;;;;;;;12.38;70.85;100106.13;5027484;28;20034;-30
2022/04/28 01:15:44;;;;;;;5.90;3.80;;;;;;;12.18;71.38;100106.41;5027249;28;20091;-29
2022/04/28 01:18:10;;;;;;;8.18;4.18;;;;;;;12.24;71.63;100102.81;5027740;28;20045;-28
2022/04/28 01:20:35;;;;;;;7.38;4.40;;;;;;;12.33;70.58;100091.81;5027808;28;20033;-28
2022/04/28 01:23:03;;;;;;;7.65;4.07;;;;;;;12.69;69.30;100114.03;5027278;28;20033;-31
2022/04/28 01:25:29;;;;;;;;;;;;;;;12.22;71.38;100117.47;5026539;28;20040;-29
2022/04/28 01:27:54;;;;;;;6.95;4.65;;;;;;;12.22;70.83;100098.75;5027107;28;20308;-28
2022/04/28 01:30:20;;;;;;;7.15;4.68;;;;;;;12.56;70.17;100109.75;5027247;28;20036;-30
2022/04/28 01:32:45;;;;;;;6.05;4.57;;;;;;;12.77;68.96;100103.00;5026912;28;20025;-28
2022/04/28 01:35:11;;;;;;;8.23;4.57;;;;;;;12.80;68.45;100111.38;5027548;28;20037;-31
2022/04/28 01:37:36;;;;;;;10.95;5.10;;;;;;;12.64;69.17;100115.56;5027011;28;20061;-29
2022/04/28 01:40:02;;;;;;;7.45;4.53;;;;;;;12.49;70.26;100111.72;5025253;28;20036;-32
2022/04/28 01:42:28;;;;;;;8.00;4.53;;;;;;;12.44;70.29;100109.72;5027314;28;20107;-27
2022/04/28 01:44:53;;;;;;;8.85;5.13;;;;;;;12.50;69.65;100105.31;5011956;28;20489;-29
2022/04/28 01:47:18;;;;;;;8.35;4.68;;;;;;;12.70;68.96;100103.13;5030977;28;20043;-29
2022/04/28 01:49:44;;;;;;;7.50;4.47;;;;;;;12.48;69.99;100100.19;5031092;28;20047;-29
2022/04/28 01:55:00;;;;;;;7.75;5.10;;;;;;;12.92;68.29;100097.19;5030931;28;20036;-29
2022/04/28 01:57:27;;;;;;;6.70;4.82;;;;;;;12.80;68.36;100095.31;5030811;28;20318;-28
2022/04/28 01:59:53;;;;;;;10.18;4.75;;;;;;;12.51;69.39;100093.56;5030857;28;20021;-31
2022/04/28 02:02:19;;;;;;;10.43;4.97;;;;;;;12.31;71.00;100113.41;5031126;28;20486;-30
2022/04/28 02:04:45;;;;;;;10.30;4.38;;;;;;;12.38;70.34;100115.97;5030709;28;20507;-28
2022/04/28 02:07:13;;;;;;;7.53;4.63;;;;;;;12.49;69.53;100090.31;5030940;28;20025;-28
2022/04/28 02:09:42;;;;;;;7.55;4.63;;;;;;;12.38;69.53;100097.25;5029398;28;20044;-29
2022/04/28 02:12:13;;;;;;;7.15;4.43;;;;;;;12.27;71.05;100118.41;5030683;28;20037;-30
2022/04/28 02:14:40;;;;;;;8.05;4.60;;;;;;;12.15;71.60;100112.19;5030505;28;20017;-29
2022/04/28 02:17:06;;;;;;;7.90;5.80;;;;;;;12.36;70.27;100116.22;5030719;28;20036;-29
2022/04/28 02:19:31;;;;;;;8.35;5.72;;;;;;;12.39;70.28;100099.72;5030645;28;20029;-30
2022/04/28 02:21:57;;;;;;;10.90;5.88;;;;;;;12.58;69.25;100118.34;5030715;28;20193;-29
2022/04/28 02:24:22;;;;;;;12.15;7.20;;;;;;;12.21;70.02;100113.97;5030686;28;20026;-29
2022/04/28 02:26:48;;;;;;;9.63;7.03;;;;;;;12.68;69.23;100112.44;5030006;28;20071;-31
2022/04/28 02:29:14;;;;;;;9.98;7.03;;;;;;;12.90;68.23;100104.66;5030438;28;20414;-33
2022/04/28 02:31:39;;;;;;;11.60;7.07;;;;;;;12.70;68.46;100097.78;5030607;28;20067;-29
2022/04/28 02:34:04;;;;;;;11.75;6.88;;;;;;;12.87;67.22;100103.22;5030351;28;20029;-36
2022/04/28 02:36:30;;;;;;;10.95;6.78;;;;;;;12.73;68.52;100115.22;5028136;28;20547;-29
2022/04/28 02:38:55;;;;;;;14.45;6.82;;;;;;;12.80;68.51;100121.28;5028896;28;20026;-28
2022/04/28 02:41:21;;;;;;;10.80;7.00;;;;;;;12.40;68.57;100111.22;5028797;28;20053;-28
2022/04/28 02:43:50;;;;;;;11.43;7.15;;;;;;;12.49;68.28;100119.75;5029238;28;20116;-28
2022/04/28 02:46:16;;;;;;;8.18;5.78;;;;;;;12.30;68.79;100122.50;5027486;28;20033;-29
2022/04/28 02:48:42;;;;;;;9.35;6.32;;;;;;;12.41;68.00;100126.22;5028724;28;20036;-29
2022/04/28 02:51:08;;;;;;;8.45;6.00;;;;;;;12.59;67.10;100125.34;5028797;28;20124;-29
2022/04/28 02:53:34;;;;;;;9.65;7.32;;;;;;;12.35;68.37;100132.50;5028675;28;20495;-30
2022/04/28 02:55:59;;;;;;;12.70;8.18;;;;;;;12.42;68.64;100131.34;5026754;28;20033;-30
2022/04/28 02:58:25;;;;;;;13.13;8.63;;;;;;;12.41;68.06;100108.31;5027783;28;20141;-30
2022/04/28 03:00:50;;;;;;;14.10;8.10;;;;;;;12.55;68.04;100129.53;5028485;28;20025;-30
2022/04/28 03:03:16;;;;;;;12.80;8.32;;;;;;;12.52;67.83;100129.97;5028355;28;20033;-31
2022/04/28 03:11:09;;;;;;;13.48;6.82;;;;;;;12.33;68.13;100138.06;5028673;28;20095;-28
2022/04/28 03:13:35;;;;;;;11.13;7.10;;;;;;;12.23;68.72;100143.97;5028444;28;20029;-28
2022/04/28 03:16:02;;;;;;;10.40;6.57;;;;;;;12.27;68.67;100138.97;5028766;28;20037;-28
2022/04/28 03:18:28;;;;;;;11.73;7.47;;;;;;;12.49;68.09;100119.75;5028252;28;20494;-28
2022/04/28 03:20:54;;;;;;;10.57;6.70;;;;;;;12.55;67.34;100134.88;5027970;28;20033;-29
2022/04/28 03:23:21;;;;;;;12.90;7.10;;;;;;;12.41;68.04;100144.94;5028391;28;20037;-31
2022/04/28 03:25:46;;;;;;;12.48;6.55;;;;;;;12.73;66.63;100148.16;5027994;28;20078;-30
2022/04/28 03:28:12;;;;;;;10.57;5.60;;;;;;;12.44;67.25;100131.94;5028220;28;20029;-29
2022/04/28 03:30:37;;;;;;;9.65;5.97;;;;;;;12.57;66.95;100155.00;5028110;28;20029;-30
2022/04/28 03:33:03;;;;;;;15.52;7.07;;;;;;;12.52;66.90;100151.38;5028310;28;20117;-31
2022/04/28 03:35:29;;;;;;;10.90;5.27;;;;;;;12.04;69.34;100167.25;4983343;28;1280909;-29
2022/04/28 03:37:54;;;;;;;14.23;5.85;;;;;;;11.91;70.16;100156.75;5029391;28;20044;-29
2022/04/28 03:40:20;;;;;;;11.63;5.35;;;;;;;12.21;69.25;100166.63;5029056;28;20551;-30
2022/04/28 03:42:46;;;;;;;11.35;5.43;;;;;;;12.48;67.80;100168.91;5028802;28;20052;-29
2022/04/28 03:45:12;;;;;;;10.77;5.45;;;;;;;12.43;68.12;100167.75;5029013;28;20100;-32
2022/04/28 03:47:38;;;;;;;8.25;5.35;;;;;;;12.64;66.66;100182.44;5028659;28;20108;-28
2022/04/28 03:50:05;;;;;;;9.25;5.50;;;;;;;12.33;68.40;100182.72;5028629;28;20490;-28
2022/04/28 03:52:30;;;;;;;7.90;5.22;;;;;;;12.68;67.75;100190.03;5028921;28;20041;-30
2022/04/28 03:54:56;;;;;;;9.85;4.80;;;;;;;12.90;66.40;100187.63;5028715;28;20029;-28
2022/04/28 03:57:21;;;;;;;10.13;5.50;;;;;;;13.04;65.55;100189.03;5028887;28;20037;-31
2022/04/28 03:59:47;;;;;;;9.90;5.45;;;;;;;13.22;65.09;100204.19;5028989;28;20029;-28
2022/04/28 04:02:12;;;;;;;9.38;5.65;;;;;;;13.34;64.80;100212.22;5028551;28;20037;-33
2022/04/28 04:04:39;;;;;;;12.73;6.13;;;;;;;13.19;65.45;100218.81;5028296;28;20660;-30
2022/04/28 04:07:05;;;;;;;9.80;6.20;;;;;;;12.61;66.63;100185.59;5027823;28;20033;-33
2022/04/28 04:09:30;;;;;;;10.90;6.70;;;;;;;12.84;66.66;100203.53;5028723;28;20788;-29
2022/04/28 04:11:56;;;;;;;21.70;7.80;;;;;;;12.73;67.08;100201.69;5028121;28;20029;-32
2022/04/28 04:14:21;;;;;;;10.30;5.90;;;;;;;13.21;65.92;100214.06;5026627;28;20060;-29
2022/04/28 04:16:47;;;;;;;13.27;6.78;;;;;;;12.95;66.39;100188.53;5028142;28;20041;-28
2022/04/28 04:19:12;;;;;;;11.98;6.47;;;;;;;13.43;65.48;100216.19;5028045;28;20048;-28
2022/04/28 04:21:39;;;;;;;13.48;7.25;;;;;;;13.45;65.92;100222.13;5028193;28;20029;-34
2022/04/28 04:24:05;;;;;;;15.40;7.60;;;;;;;13.49;65.83;100228.66;5027997;28;20124;-30
2022/04/28 04:26:31;;;;;;;15.00;7.90;;;;;;;13.69;65.69;100222.09;5028217;28;20135;-28
2022/04/28 04:28:56;;;;;;;11.75;7.63;;;;;;;13.88;65.01;100233.50;5028084;28;20919;-28
2022/04/28 04:34:05;;;;;;;11.27;8.30;;;;;;;13.85;65.35;100240.97;5028094;28;20033;-30
2022/04/28 04:36:31;;;;;;;14.68;7.53;;;;;;;13.74;65.89;100238.28;5027871;28;20057;-28
2022/04/28 04:38:56;;;;;;;11.68;7.18;;;;;;;13.85;65.74;100235.59;5027833;28;20417;-29
2022/04/28 04:41:22;;;;;;;10.88;7.10;;;;;;;13.88;65.38;100238.88;5027758;28;20064;-32
2022/04/28 04:43:47;;;;;;;9.80;6.53;;;;;;;13.86;65.48;100257.84;5027859;28;20017;-28
2022/04/28 04:46:13;;;;;;;9.73;6.60;;;;;;;14.06;64.94;100263.66;5027564;28;20083;-31
2022/04/28 04:48:38;;;;;;;12.85;7.13;;;;;;;14.33;64.83;100259.59;5027514;28;20053;-30
2022/04/28 04:51:04;;;;;;;12.82;7.32;;;;;;;14.01;66.27;100241.25;5027915;28;20104;-33
2022/04/28 04:53:29;;;;;;;12.93;7.03;;;;;;;13.83;68.29;100261.84;5028206;28;20033;-30
2022/04/28 04:55:55;;;;;;;13.10;6.95;;;;;;;14.03;67.99;100258.75;5027806;28;20516;-28
2022/04/28 04:58:20;;;;;;;11.63;6.50;;;;;;;13.94;69.16;100249.44;5027527;28;20064;-31
2022/04/28 05:00:46;;;;;;;11.48;6.35;;;;;;;13.68;70.56;100261.47;5027209;28;20726;-30
2022/04/28 05:03:13;;;;;;;9.68;6.03;;;;;;;13.69;70.08;100251.56;5027472;28;20098;-29
2022/04/28 05:05:38;;;;;;;9.20;5.40;;;;;;;13.61;69.61;100252.78;5027451;28;20029;-30
2022/04/28 05:08:04;;;;;;;8.77;5.57;;;;;;;13.63;70.08;100270.22;5027139;28;20033;-29
2022/04/28 05:10:30;;;;;;;8.07;5.72;;;;;;;13.30;69.71;100256.59;5027570;28;20030;-29
2022/04/28 05:12:56;;;;;;;9.00;5.40;;;;;;;13.31;71.39;100267.09;5027031;28;20040;-28
2022/04/28 05:15:22;;;;;;;9.63;6.10;;;;;;;13.23;71.68;100256.69;5027205;28;20055;-29
2022/04/28 05:17:48;;;;;;;8.93;5.88;;;;;;;13.45;70.06;100256.97;5027234;28;20170;-28
2022/04/28 05:20:13;;;;;;;9.13;6.47;;;;;;;13.49;69.93;100271.53;5027362;28;20496;-28
2022/04/28 05:22:39;;;;;;;9.80;6.30;;;;;;;13.37;71.24;100273.38;5027193;28;20029;-30
2022/04/28 05:25:05;;;;;;;10.00;6.35;;;;;;;13.39;71.17;100257.88;5027195;28;20473;-31
2022/04/28 05:27:30;;;;;;;9.15;5.97;;;;;;;13.50;71.62;100280.38;5027124;28;20551;-28
2022/04/28 05:29:56;;;;;;;8.00;5.82;;;;;;;13.53;71.88;100279.91;5027130;28;20057;-29
2022/04/28 05:32:21;;;;;;;10.13;5.85;;;;;;;13.64;71.94;100276.41;5027433;28;20486;-29
2022/04/28 05:34:47;;;;;;;9.00;5.95;;;;;;;13.75;70.10;100266.72;5027589;28;20945;-28
2022/04/28 05:37:14;;;;;;;9.68;6.07;;;;;;;13.80;71.14;100281.06;5027263;28;20061;-31
2022/04/28 05:39:42;;;;;;;11.73;6.03;;;;;;;13.77;68.73;100269.97;5027314;28;20025;-28
2022/04/28 05:42:09;;;;;;;10.50;6.25;;;;;;;13.85;69.68;100273.13;5027136;28;20056;-30
2022/04/28 05:47:19;;;;;;;9.68;6.07;;;;;;;14.57;66.28;100273.78;5026903;28;20040;-29
2022/04/28 05:49:45;;;;;;;8.25;6.03;;;;;;;14.77;66.08;100284.91;5025631;28;20018;-29
2022/04/28 05:52:11;;;;;;;8.85;5.55;;;;;;;14.59;66.80;100293.16;5026863;28;20033;-29
2022/04/28 05:54:36;;;;;;;9.27;5.32;;;;;;;14.57;66.82;100277.28;5026897;28;20056;-29
2022/04/28 05:57:03;;;;;;;11.38;7.00;;;;;;;14.75;65.81;100280.78;5026483;28;20398;-32
2022/04/28 05:59:28;;;;;;;11.95;6.20;;;;;;;14.67;67.52;100298.13;5026655;28;20108;-32
2022/04/28 06:01:54;;;;;;;8.55;5.88;;;;;;;14.82;66.58;100298.41;5026724;28;20112;-29
2022/04/28 06:04:19;;;;;;;8.88;5.68;;;;;;;14.61;67.18;100301.78;5027207;28;20033;-30
2022/04/28 06:06:45;;;;;;;8.93;5.82;;;;;;;14.26;68.25;100289.22;5026443;28;20030;-29
2022/04/28 06:09:10;;;;;;;9.73;5.78;;;;;;;14.74;67.42;100300.66;5026676;28;20030;-30
2022/04/28 06:11:36;;;;;;;8.75;5.80;;;;;;;14.83;65.55;100294.66;5026661;28;20033;-32
2022/04/28 06:14:01;;;;;;;10.68;5.95;;;;;;;15.04;65.05;100300.41;5026396;28;20025;-29
2022/04/28 06:16:27;;;;;;;8.50;5.80;;;;;;;15.20;64.67;100315.72;5027071;28;20099;-30
2022/04/28 06:18:52;;;;;;;8.63;5.30;;;;;;;15.34;63.64;100315.38;5026472;28;20065;-28
2022/04/28 06:21:17;;;;;;;10.55;5.80;;;;;;;15.05;64.17;100300.13;5026653;28;20052;-29
2022/04/28 06:23:45;;;;;;;10.40;6.53;;;;;;;15.12;63.94;100313.44;5026461;28;20037;-29
2022/04/28 06:26:10;;;;;;;8.32;5.40;;;;;;;15.42;63.37;100312.28;5026503;28;20104;-30
2022/04/28 06:28:36;;;;;;;11.40;5.55;;;;;;;15.17;63.29;100302.75;5026486;28;20021;-30
2022/04/28 06:31:01;;;;;;;8.20;5.00;;;;;;;15.66;62.95;100311.03;5029118;28;20044;-29
2022/04/28 06:33:27;;;;;;;8.70;5.57;;;;;;;15.95;61.06;100310.94;5030231;28;20025;-33
2022/04/28 06:35:52;;;;;;;7.47;4.85;;;;;;;15.85;61.63;100289.28;5029865;28;20045;-31
2022/04/28 06:38:17;;;;;;;7.50;4.93;;;;;;;16.41;60.42;100311.53;5030053;28;20505;-30
2022/04/28 06:40:43;;;;;;;10.30;5.28;;;;;;;16.53;60.58;100289.84;5029362;28;20075;-30
2022/04/28 06:43:08;;;;;;;6.38;4.22;;;;;;;16.67;57.30;100311.78;5030029;28;20134;-30
2022/04/28 06:45:34;;;;;;;6.95;4.85;;;;;;;16.51;59.16;100300.06;5030288;28;20108;-30
2022/04/28 06:48:01;;;;;;;9.13;5.05;;;;;;;16.63;57.97;100294.50;5030012;28;20111;-30
2022/04/28 06:50:26;;;;;;;10.60;4.70;;;;;;;16.57;57.89;100295.53;5029854;28;20069;-29
2022/04/28 06:52:52;;;;;;;11.02;5.25;;;;;;;16.73;56.12;100283.84;5029555;28;20118;-29
2022/04/28 06:55:18;;;;;;;6.85;4.00;;;;;;;16.87;56.31;100306.63;5029681;28;20080;-30
2022/04/28 06:57:43;;;;;;;7.28;4.53;;;;;;;17.00;57.16;100294.66;5029423;28;20160;-29
2022/04/28 07:00:09;;;;;;;7.72;4.05;;;;;;;17.18;57.60;100303.41;5029715;28;20029;-33
2022/04/28 07:02:35;;;;;;;8.63;4.63;;;;;;;17.14;58.55;100300.44;5029436;28;20029;-29
2022/04/28 07:05:01;;;;;;;7.68;4.55;;;;;;;17.73;56.71;100302.19;5029576;28;20024;-35
2022/04/28 07:07:27;;;;;;;9.82;4.25;;;;;;;17.91;55.07;100311.78;5029184;28;20104;-30
2022/04/28 07:09:52;;;;;;;8.73;4.38;;;;;;;17.50;56.36;100294.50;5029443;28;20422;-29
2022/04/28 07:12:18;;;;;;;9.35;4.05;;;;;;;17.35;56.29;100297.91;5029280;28;20406;-31
2022/04/28 07:14:43;;;;;;;7.88;4.15;;;;;;;17.59;56.59;100284.84;5029256;28;20464;-28
2022/04/28 07:17:10;;;;;;;9.27;4.30;;;;;;;18.13;55.54;100289.22;5029438;28;20100;-29
2022/04/28 07:19:36;;;;;;;8.93;4.07;;;;;;;18.06;53.80;100289.44;5029162;28;20026;-32
2022/04/28 07:22:05;;;;;;;8.50;4.18;;;;;;;18.10;54.74;100295.13;5029137;28;20100;-32
2022/04/28 07:24:33;;;;;;;7.15;4.25;;;;;;;18.24;56.59;100301.69;5029024;28;20056;-31
2022/04/28 07:26:58;;;;;;;8.52;4.95;;;;;;;18.58;54.87;100299.38;5029224;28;20022;-28
2022/04/28 07:29:24;;;;;;;8.23;5.00;;;;;;;18.78;52.82;100309.41;5029460;28;20047;-32
2022/04/28 07:31:50;;;;;;;9.05;5.20;;;;;;;18.79;55.44;100307.53;5029346;28;20052;-30
2022/04/28 07:34:15;;;;;;;8.05;4.90;;;;;;;18.83;54.22;100298.63;5029485;28;20413;-29
2022/04/28 07:36:40;;;;;;;11.93;4.93;;;;;;;18.69;54.02;100302.88;5028809;28;20080;-33
2022/04/28 07:39:06;;;;;;;6.85;4.35;;;;;;;18.91;52.96;100310.00;5028982;28;20059;-32
2022/04/28 07:41:31;;;;;;;8.35;4.10;;;;;;;19.20;52.47;100308.38;5027489;28;20039;-29
2022/04/28 07:43:57;;;;;;;7.82;4.68;;;;;;;19.18;50.19;100294.31;5029189;28;20025;-29
2022/04/28 07:46:22;;;;;;;5.57;3.50;;;;;;;19.73;49.15;100315.41;5028869;28;20431;-29
2022/04/28 07:48:48;;;;;;;8.90;3.28;;;;;;;20.05;45.80;100305.03;5029063;28;20025;-34
2022/04/28 07:51:13;;;;;;;7.10;2.90;;;;;;;20.20;44.93;100300.66;5029033;28;20029;-29
2022/04/28 07:53:38;;;;;;;9.98;3.15;;;;;;;20.43;43.74;100307.31;5028919;28;20090;-29
2022/04/28 07:56:10;;;;;;;4.70;2.95;;;;;;;20.21;44.75;100294.97;5028552;28;20088;-30
2022/04/28 07:58:37;;;;;;;5.68;3.33;;;;;;;20.24;48.62;100294.38;5028769;28;20025;-29
2022/04/28 08:01:04;;;;;;;7.30;3.38;;;;;;;19.73;48.29;100304.59;5027227;28;20494;-33
2022/04/28 08:03:30;;;;;;;7.43;3.65;;;;;;;19.37;49.01;100307.28;5027104;28;20524;-30
2022/04/28 08:05:56;;;;;;;6.35;3.58;;;;;;;19.82;49.97;100298.34;5028550;28;20029;-29
2022/04/28 08:08:21;;;;;;;7.47;3.45;;;;;;;19.81;49.96;100306.72;5028225;28;20029;-30
2022/04/28 08:10:48;;;;;;;5.53;3.80;;;;;;;19.93;49.48;100285.59;5028261;28;20072;-31
2022/04/28 08:13:14;;;;;;;8.05;3.40;;;;;;;20.09;48.09;100291.75;5028467;28;20056;-31
2022/04/28 08:15:39;;;;;;;7.30;3.47;;;;;;;20.16;47.76;100286.03;5028452;28;20069;-28
2022/04/28 08:18:05;;;;;;;8.07;3.80;;;;;;;20.37;48.20;100287.59;5028604;28;20995;-34
2022/04/28 08:20:31;;;;;;;5.95;3.33;;;;;;;20.57;46.73;100297.47;5028144;28;20508;-29
2022/04/28 08:22:56;;;;;;;5.43;2.97;;;;;;;20.69;46.68;100288.25;5027882;28;20090;-31
2022/04/28 08:25:22;;;;;;;7.32;3.40;;;;;;;20.23;46.20;100281.97;5028259;28;20066;-29
2022/04/28 08:27:47;;;;;;;6.53;3.45;;;;;;;20.69;45.70;100283.63;5028311;28;20052;-29
2022/04/28 08:30:13;;;;;;;6.95;3.20;;;;;;;20.85;47.01;100295.19;5028068;28;20736;-30
2022/04/28 08:32:38;;;;;;;6.40;2.85;;;;;;;21.22;46.58;100286.47;5027944;28;20414;-31
2022/04/28 08:35:04;;;;;;;6.53;3.40;;;;;;;21.24;44.17;100284.28;5027945;28;20083;-28
2022/04/28 08:37:30;;;;;;;7.13;3.17;;;;;;;21.02;43.68;100287.47;5027373;28;20131;-29
2022/04/28 08:39:55;;;;;;;9.13;3.45;;;;;;;20.56;45.52;100271.50;5027787;28;20026;-31
2022/04/28 08:42:22;;;;;;;5.53;3.10;;;;;;;20.97;46.64;100265.00;5027978;28;20057;-29
2022/04/28 08:44:49;;;;;;;5.82;3.30;;;;;;;21.21;44.59;100287.59;5027472;28;20040;-32
2022/04/28 08:47:15;;;;;;;7.68;3.78;;;;;;;21.15;44.09;100282.50;5027453;28;20350;-31
2022/04/28 08:49:44;;;;;;;6.63;3.22;;;;;;;21.45;45.42;100284.13;5027494;28;20508;-36
2022/04/28 08:52:11;;;;;;;7.40;2.78;;;;;;;21.63;44.88;100280.69;5027187;28;20032;-29
2022/04/28 08:54:39;;;;;;;8.70;3.00;;;;;;;22.06;43.62;100272.59;5027832;28;20087;-32
2022/04/28 08:57:05;;;;;;;6.20;3.00;;;;;;;21.51;45.16;100255.84;5027573;28;20490;-29
2022/04/28 08:59:30;;;;;;;9.98;4.05;;;;;;;21.96;43.50;100261.84;5027629;28;20066;-29
2022/04/28 09:01:56;;;;;;;7.20;3.05;;;;;;;22.01;43.63;100275.38;5027560;28;20449;-29
2022/04/28 09:04:23;;;;;;;6.03;3.15;;;;;;;21.80;44.16;100255.00;5027460;28;20086;-29
2022/04/28 09:06:54;;;;;;;5.75;3.00;;;;;;;21.96;45.67;100253.72;5025672;28;20473;-29
2022/04/28 09:09:20;;;;;;;7.50;3.40;;;;;;;22.36;42.70;100262.47;5027777;28;20033;-29
2022/04/28 09:11:47;;;;;;;8.43;2.85;;;;;;;22.23;45.40;100272.16;5027571;28;20025;-31
2022/04/28 09:14:14;;;;;;;6.78;3.20;;;;;;;22.44;42.92;100278.13;5027268;28;20025;-31
2022/04/28 09:16:59;;;;;;;6.00;2.70;;;;;;;22.73;42.17;100266.28;5027205;28;20144;-30
2022/04/28 09:19:38;;;;;;;5.88;2.85;;;;;;;23.10;40.72;100272.81;5027298;28;20037;-31
2022/04/28 09:22:13;;;;;;;5.40;3.00;;;;;;;23.27;41.46;100259.47;5027199;28;20034;-32
2022/04/28 09:24:43;;;;;;;5.88;2.70;;;;;;;23.44;39.92;100260.81;5025509;28;20743;-29
2022/04/28 09:27:09;;;;;;;4.70;2.50;;;;;;;23.29;41.34;100252.91;5026930;28;20025;-30
2022/04/28 09:29:44;;;;;;;4.53;2.60;;;;;;;23.37;41.26;100252.22;5026893;28;20029;-32
2022/04/28 09:32:11;;;;;;;5.00;2.80;;;;;;;23.53;39.99;100261.72;5027249;28;20044;-29
2022/04/28 09:34:47;;;;;;;4.28;2.65;;;;;;;23.84;40.24;100255.69;5025710;28;20026;-31
2022/04/28 09:37:19;;;;;;;5.13;2.67;;;;;;;23.65;40.01;100259.28;5026687;28;20068;-29
2022/04/28 09:42:39;;;;;;;3.90;2.50;;;;;;;24.43;40.34;100248.44;5027293;28;20060;-30
2022/04/28 09:45:06;;;;;;;5.43;2.47;;;;;;;23.94;37.97;100241.88;5025956;28;20497;-29
2022/04/28 09:47:32;;;;;;;5.90;2.60;;;;;;;24.35;37.96;100235.53;5026874;28;20025;-31
2022/04/28 09:49:58;;;;;;;3.60;2.58;;;;;;;24.86;39.54;100248.00;5025415;28;20076;-29
2022/04/28 09:52:26;;;;;;;5.93;2.45;;;;;;;24.81;37.31;100242.69;5026818;28;20452;-29
2022/04/28 09:54:54;;;;;;;5.93;2.33;;;;;;;24.91;37.45;100240.81;5026793;28;20136;-30
2022/04/28 09:57:20;;;;;;;6.82;2.70;;;;;;;24.98;37.86;100236.53;5026710;28;20033;-30
2022/04/28 09:59:50;;;;;;;7.63;2.42;;;;;;;25.15;36.32;100221.38;5026900;28;20026;-29
2022/04/28 10:02:20;;;;;;;5.75;2.40;;;;;;;25.01;37.02;100214.09;5025260;28;20504;-30
2022/04/28 10:04:47;;;;;;;4.93;2.47;;;;;;;25.20;37.50;100226.72;5027819;28;20524;-30
2022/04/28 10:07:13;;;;;;;6.03;2.60;;;;;;;25.63;37.59;100216.00;5030337;28;20026;-30
2022/04/28 10:09:40;;;;;;;4.70;2.22;;;;;;;25.33;36.82;100225.03;5030638;28;20064;-31
2022/04/28 10:12:07;;;;;;;4.57;2.38;;;;;;;25.26;37.43;100215.38;5030836;28;20033;-29
2022/04/28 10:14:40;;;;;;;4.78;2.45;;;;;;;25.35;37.12;100209.16;5030717;28;20048;-29
2022/04/28 10:17:11;;;;;;;4.72;2.40;;;;;;;25.61;39.94;100210.06;5030525;28;20034;-29
2022/04/28 10:19:43;;;;;;;4.15;2.00;;;;;;;25.90;37.11;100210.66;5030166;28;20029;-32
2022/04/28 10:22:15;;;;;;;4.32;2.00;;;;;;;25.92;34.84;100202.94;5030616;28;20044;-33
2022/04/28 10:33:24;;;;;;;4.18;2.10;;;;;;;27.35;33.14;100187.38;5030403;28;20040;-32
2022/04/28 10:35:50;;;;;;;4.70;2.10;;;;;;;27.72;31.99;100206.06;5029964;28;20133;-32
2022/04/28 10:38:22;;;;;;;3.70;1.90;;;;;;;27.24;32.91;100181.47;5029931;28;20108;-30
2022/04/28 10:41:04;;;;;;;5.07;2.30;;;;;;;26.68;33.67;100179.81;5028719;28;20030;-33
2022/04/28 10:43:32;;;;;;;7.20;2.33;;;;;;;26.81;33.22;100193.31;5030036;28;20044;-33
2022/04/28 10:46:01;;;;;;;4.85;1.90;;;;;;;26.48;33.51;100165.69;5029991;28;20034;-30
2022/04/28 10:48:29;;;;;;;4.93;2.17;;;;;;;27.03;32.44;100183.28;5029523;28;20039;-33
2022/04/28 10:51:05;;;;;;;5.38;2.10;;;;;;;27.00;35.43;100168.31;5029477;28;20073;-31
2022/04/28 10:53:32;;;;;;;9.00;2.80;;;;;;;26.37;34.79;100187.06;5029918;28;20037;-31
2022/04/28 10:56:07;;;;;;;5.47;3.20;;;;;;;27.35;33.17;100192.06;5028360;28;20041;-30
2022/04/28 10:58:33;;;;;;;5.65;2.22;;;;;;;26.91;35.10;100183.16;5029742;28;20036;-31
2022/04/28 11:01:00;;;;;;;4.07;2.17;;;;;;;26.90;35.21;100187.03;5029375;28;20021;-29
2022/04/28 11:03:58;;;;;;;5.10;1.90;;;;;;;27.40;32.62;100194.59;5027927;28;20044;-33
2022/04/28 11:06:31;;;;;;;6.15;2.60;;;;;;;28.03;31.65;100195.59;5017358;28;20112;-31
2022/04/28 11:08:59;;;;;;;5.32;2.20;;;;;;;27.78;32.03;100177.34;5029546;28;20030;-33
2022/04/28 11:11:29;;;;;;;4.20;1.98;;;;;;;27.25;31.67;100191.28;5029651;28;20036;-31
2022/04/28 11:13:59;;;;;;;5.65;1.80;;;;;;;27.48;29.14;100184.75;5028039;28;20079;-29
2022/04/28 11:16:26;;;;;;;4.30;1.40;;;;;;;27.90;28.48;100180.19;5029640;28;20509;-30
2022/04/28 11:18:53;;;;;;;4.57;1.80;;;;;;;27.49;30.18;100191.84;5029386;28;20084;-29
2022/04/28 11:21:19;;;;;;;5.32;1.63;;;;;;;26.72;30.12;100176.09;5029452;28;20030;-29
2022/04/28 11:23:48;;;;;;;4.07;1.70;;;;;;;26.13;31.93;100168.41;5029266;28;20099;-30
2022/04/28 11:26:14;;;;;;;7.43;2.08;;;;;;;25.98;33.69;100166.94;5029078;28;20443;-29
2022/04/28 11:28:42;;;;;;;7.22;1.88;;;;;;;25.62;33.22;100176.19;5028939;28;20488;-29
2022/04/28 11:31:13;;;;;;;5.95;1.88;;;;;;;25.17;34.57;100168.13;5029406;28;20021;-29
2022/04/28 11:33:42;;;;;;;5.40;2.20;;;;;;;24.99;34.15;100166.44;5029126;28;20107;-29
2022/04/28 11:36:19;;;;;;;4.65;1.90;;;;;;;25.07;35.21;100152.03;5029039;28;20081;-30
2022/04/28 11:38:53;;;;;;;5.85;1.80;;;;;;;24.93;35.70;100154.00;5028757;28;20033;-29
2022/04/28 11:41:31;;;;;;;2.92;2.03;;;;;;;25.32;35.12;100152.47;5027737;28;20069;-29
2022/04/28 11:44:06;;;;;;;5.25;1.85;;;;;;;25.43;34.09;100153.78;5029037;28;20029;-33
2022/04/28 11:46:34;;;;;;;8.50;2.17;;;;;;;25.96;33.91;100132.88;5027362;28;20132;-31
2022/04/28 11:48:59;;;;;;;;;;;;;;;26.99;32.24;100146.75;5029007;28;20469;-29
2022/04/28 11:51:25;;;;;;;6.32;1.90;;;;;;;27.44;31.67;100157.22;5028581;28;19952;-29